sensor_id;sensor_type;location;lat;lon;timestamp;temperature;humidity
4354;DHT22;11018;51.258;6.806;2023-02-27T00:00:22;1.00;43.30
4354;DHT22;11018;51.258;6.806;2023-02-27T00:02:50;0.80;44.20
4354;DHT22;11018;51.258;6.806;2023-02-27T00:05:16;0.60;46.40
4354;DHT22;11018;51.258;6.806;2023-02-27T00:07:42;0.30;48.00
4354;DHT22;11018;51.258;6.806;2023-02-27T00:10:13;0.10;50.20
4354;DHT22;11018;51.258;6.806;2023-02-27T00:12:39;0.20;51.20
4354;DHT22;11018;51.258;6.806;2023-02-27T00:15:09;0.50;48.90
4354;DHT22;11018;51.258;6.806;2023-02-27T00:17:35;0.70;46.60
4354;DHT22;11018;51.258;6.806;2023-02-27T00:20:02;0.80;45.30
4354;DHT22;11018;51.258;6.806;2023-02-27T00:22:28;0.90;45.10
4354;DHT22;11018;51.258;6.806;2023-02-27T00:24:53;0.90;44.10
4354;DHT22;11018;51.258;6.806;2023-02-27T00:27:19;0.90;43.70
4354;DHT22;11018;51.258;6.806;2023-02-27T00:29:44;0.90;43.60
4354;DHT22;11018;51.258;6.806;2023-02-27T00:32:10;0.80;44.00
4354;DHT22;11018;51.258;6.806;2023-02-27T00:34:35;0.30;47.20
4354;DHT22;11018;51.258;6.806;2023-02-27T00:37:01;0.10;51.20
4354;DHT22;11018;51.258;6.806;2023-02-27T00:39:27;-0.10;52.20
4354;DHT22;11018;51.258;6.806;2023-02-27T00:41:52;0.00;52.70
4354;DHT22;11018;51.258;6.806;2023-02-27T00:44:18;0.40;50.10
4354;DHT22;11018;51.258;6.806;2023-02-27T00:46:43;0.60;47.40
4354;DHT22;11018;51.258;6.806;2023-02-27T00:49:09;0.80;45.40
4354;DHT22;11018;51.258;6.806;2023-02-27T00:51:34;0.90;44.40
4354;DHT22;11018;51.258;6.806;2023-02-27T00:54:00;0.90;44.10
4354;DHT22;11018;51.258;6.806;2023-02-27T00:56:25;0.90;44.00
4354;DHT22;11018;51.258;6.806;2023-02-27T00:58:51;0.80;45.10
4354;DHT22;11018;51.258;6.806;2023-02-27T01:01:16;0.80;44.90
4354;DHT22;11018;51.258;6.806;2023-02-27T01:03:42;0.80;45.50
4354;DHT22;11018;51.258;6.806;2023-02-27T01:06:08;0.70;47.00
4354;DHT22;11018;51.258;6.806;2023-02-27T01:08:33;0.80;45.90
4354;DHT22;11018;51.258;6.806;2023-02-27T01:10:59;0.80;46.80
4354;DHT22;11018;51.258;6.806;2023-02-27T01:13:24;0.70;47.70
4354;DHT22;11018;51.258;6.806;2023-02-27T01:15:50;0.60;49.50
4354;DHT22;11018;51.258;6.806;2023-02-27T01:18:16;0.50;50.40
4354;DHT22;11018;51.258;6.806;2023-02-27T01:20:42;0.40;53.40
4354;DHT22;11018;51.258;6.806;2023-02-27T01:23:07;0.60;51.60
4354;DHT22;11018;51.258;6.806;2023-02-27T01:25:33;0.60;53.00
4354;DHT22;11018;51.258;6.806;2023-02-27T01:27:59;0.70;52.40
4354;DHT22;11018;51.258;6.806;2023-02-27T01:30:25;0.70;51.30
4354;DHT22;11018;51.258;6.806;2023-02-27T01:32:50;0.40;52.30
4354;DHT22;11018;51.258;6.806;2023-02-27T01:35:16;0.40;53.70
4354;DHT22;11018;51.258;6.806;2023-02-27T01:37:42;0.60;53.00
4354;DHT22;11018;51.258;6.806;2023-02-27T01:40:09;0.50;53.00
4354;DHT22;11018;51.258;6.806;2023-02-27T01:42:35;0.70;52.00
4354;DHT22;11018;51.258;6.806;2023-02-27T01:47:39;0.60;50.90
4354;DHT22;11018;51.258;6.806;2023-02-27T01:50:07;0.60;51.60
4354;DHT22;11018;51.258;6.806;2023-02-27T01:52:35;0.80;49.20
4354;DHT22;11018;51.258;6.806;2023-02-27T01:55:02;0.80;49.60
4354;DHT22;11018;51.258;6.806;2023-02-27T01:57:29;0.80;48.00
4354;DHT22;11018;51.258;6.806;2023-02-27T01:59:55;0.80;48.20
4354;DHT22;11018;51.258;6.806;2023-02-27T02:02:37;0.70;50.30
4354;DHT22;11018;51.258;6.806;2023-02-27T02:05:05;0.70;50.60
4354;DHT22;11018;51.258;6.806;2023-02-27T02:07:33;0.70;49.60
4354;DHT22;11018;51.258;6.806;2023-02-27T02:10:00;0.80;48.10
4354;DHT22;11018;51.258;6.806;2023-02-27T02:12:29;0.80;47.90
4354;DHT22;11018;51.258;6.806;2023-02-27T02:14:55;0.80;47.60
4354;DHT22;11018;51.258;6.806;2023-02-27T02:34:40;0.50;51.30
4354;DHT22;11018;51.258;6.806;2023-02-27T02:37:32;0.50;51.40
4354;DHT22;11018;51.258;6.806;2023-02-27T02:45:38;-0.10;55.40
4354;DHT22;11018;51.258;6.806;2023-02-27T02:48:10;-0.20;56.00
4354;DHT22;11018;51.258;6.806;2023-02-27T02:56:24;-0.20;59.00
4354;DHT22;11018;51.258;6.806;2023-02-27T02:59:16;-0.10;57.10
4354;DHT22;11018;51.258;6.806;2023-02-27T03:01:50;-0.10;56.40
4354;DHT22;11018;51.258;6.806;2023-02-27T03:04:37;0.00;56.50
4354;DHT22;11018;51.258;6.806;2023-02-27T03:07:20;-0.20;57.60
4354;DHT22;11018;51.258;6.806;2023-02-27T03:09:59;-0.10;57.60
4354;DHT22;11018;51.258;6.806;2023-02-27T03:12:28;0.00;56.20
4354;DHT22;11018;51.258;6.806;2023-02-27T03:17:41;0.10;54.80
4354;DHT22;11018;51.258;6.806;2023-02-27T03:20:11;0.10;54.70
4354;DHT22;11018;51.258;6.806;2023-02-27T03:22:43;0.00;54.80
4354;DHT22;11018;51.258;6.806;2023-02-27T03:25:12;-0.20;56.60
4354;DHT22;11018;51.258;6.806;2023-02-27T03:27:47;-0.50;58.90
4354;DHT22;11018;51.258;6.806;2023-02-27T03:30:29;-0.70;62.40
4354;DHT22;11018;51.258;6.806;2023-02-27T03:33:01;-0.50;63.40
4354;DHT22;11018;51.258;6.806;2023-02-27T03:35:49;-0.60;62.10
4354;DHT22;11018;51.258;6.806;2023-02-27T03:41:00;-0.20;60.10
4354;DHT22;11018;51.258;6.806;2023-02-27T03:43:39;-0.20;58.90
4354;DHT22;11018;51.258;6.806;2023-02-27T03:46:13;-0.30;59.50
4354;DHT22;11018;51.258;6.806;2023-02-27T03:48:40;-0.40;60.00
4354;DHT22;11018;51.258;6.806;2023-02-27T03:51:16;-0.50;60.40
4354;DHT22;11018;51.258;6.806;2023-02-27T03:53:59;-0.50;61.10
4354;DHT22;11018;51.258;6.806;2023-02-27T03:56:43;-0.80;63.60
4354;DHT22;11018;51.258;6.806;2023-02-27T03:59:09;-0.70;65.20
4354;DHT22;11018;51.258;6.806;2023-02-27T04:01:35;-0.70;64.70
4354;DHT22;11018;51.258;6.806;2023-02-27T04:04:07;-0.90;64.50
4354;DHT22;11018;51.258;6.806;2023-02-27T04:06:37;-1.10;67.30
4354;DHT22;11018;51.258;6.806;2023-02-27T04:15:03;-1.40;71.60
4354;DHT22;11018;51.258;6.806;2023-02-27T04:17:39;-1.50;72.80
4354;DHT22;11018;51.258;6.806;2023-02-27T04:25:58;-1.40;69.90
4354;DHT22;11018;51.258;6.806;2023-02-27T04:28:49;-1.30;71.60
4354;DHT22;11018;51.258;6.806;2023-02-27T04:31:29;-1.50;72.50
4354;DHT22;11018;51.258;6.806;2023-02-27T04:34:12;-1.50;73.30
4354;DHT22;11018;51.258;6.806;2023-02-27T04:39:06;-1.60;75.90
4354;DHT22;11018;51.258;6.806;2023-02-27T04:41:56;-1.60;76.60
4354;DHT22;11018;51.258;6.806;2023-02-27T04:44:24;-1.70;77.00
4354;DHT22;11018;51.258;6.806;2023-02-27T04:46:51;-1.60;76.90
4354;DHT22;11018;51.258;6.806;2023-02-27T04:49:20;-1.50;76.70
4354;DHT22;11018;51.258;6.806;2023-02-27T04:51:53;-1.40;74.60
4354;DHT22;11018;51.258;6.806;2023-02-27T04:54:26;-1.20;74.10
4354;DHT22;11018;51.258;6.806;2023-02-27T04:56:56;-1.10;71.50
4354;DHT22;11018;51.258;6.806;2023-02-27T04:59:29;-1.00;70.70
4354;DHT22;11018;51.258;6.806;2023-02-27T05:02:22;-0.90;68.30
4354;DHT22;11018;51.258;6.806;2023-02-27T05:04:52;-0.90;66.70
4354;DHT22;11018;51.258;6.806;2023-02-27T05:07:22;-0.90;69.40
4354;DHT22;11018;51.258;6.806;2023-02-27T05:09:59;-1.10;69.00
4354;DHT22;11018;51.258;6.806;2023-02-27T05:12:42;-1.20;70.60
4354;DHT22;11018;51.258;6.806;2023-02-27T05:15:14;-1.40;72.50
4354;DHT22;11018;51.258;6.806;2023-02-27T05:17:43;-1.50;75.50
4354;DHT22;11018;51.258;6.806;2023-02-27T05:20:10;-1.30;75.30
4354;DHT22;11018;51.258;6.806;2023-02-27T05:25:13;-1.20;72.50
4354;DHT22;11018;51.258;6.806;2023-02-27T05:30:55;-0.90;69.90
4354;DHT22;11018;51.258;6.806;2023-02-27T05:33:40;-1.00;70.10
4354;DHT22;11018;51.258;6.806;2023-02-27T05:36:15;-0.30;70.20
4354;DHT22;11018;51.258;6.806;2023-02-27T05:38:46;-0.80;68.10
4354;DHT22;11018;51.258;6.806;2023-02-27T05:41:34;-0.90;67.70
4354;DHT22;11018;51.258;6.806;2023-02-27T05:44:09;-0.80;67.60
4354;DHT22;11018;51.258;6.806;2023-02-27T05:46:38;-0.80;67.70
4354;DHT22;11018;51.258;6.806;2023-02-27T05:49:12;-0.50;69.70
4354;DHT22;11018;51.258;6.806;2023-02-27T05:51:40;-1.10;71.40
4354;DHT22;11018;51.258;6.806;2023-02-27T05:57:13;-1.50;75.40
4354;DHT22;11018;51.258;6.806;2023-02-27T05:59:47;-1.40;76.40
4354;DHT22;11018;51.258;6.806;2023-02-27T06:02:14;-1.40;77.60
4354;DHT22;11018;51.258;6.806;2023-02-27T06:04:40;-1.60;79.30
4354;DHT22;11018;51.258;6.806;2023-02-27T06:07:06;-1.40;80.30
4354;DHT22;11018;51.258;6.806;2023-02-27T06:09:32;-1.20;78.60
4354;DHT22;11018;51.258;6.806;2023-02-27T06:11:59;-1.10;75.60
4354;DHT22;11018;51.258;6.806;2023-02-27T06:14:26;-0.60;73.10
4354;DHT22;11018;51.258;6.806;2023-02-27T06:16:51;-0.90;70.70
4354;DHT22;11018;51.258;6.806;2023-02-27T06:19:17;-0.90;71.20
4354;DHT22;11018;51.258;6.806;2023-02-27T06:21:43;-0.80;70.10
4354;DHT22;11018;51.258;6.806;2023-02-27T06:24:11;-0.90;70.40
4354;DHT22;11018;51.258;6.806;2023-02-27T06:26:37;-0.80;69.20
4354;DHT22;11018;51.258;6.806;2023-02-27T06:29:02;-0.80;69.30
4354;DHT22;11018;51.258;6.806;2023-02-27T06:31:28;-0.80;69.40
4354;DHT22;11018;51.258;6.806;2023-02-27T06:33:54;-0.80;70.50
4354;DHT22;11018;51.258;6.806;2023-02-27T06:36:20;-0.70;70.10
4354;DHT22;11018;51.258;6.806;2023-02-27T06:38:47;-0.60;68.40
4354;DHT22;11018;51.258;6.806;2023-02-27T06:41:12;-0.60;68.40
4354;DHT22;11018;51.258;6.806;2023-02-27T06:43:38;-0.70;67.90
4354;DHT22;11018;51.258;6.806;2023-02-27T06:46:04;-0.60;68.80
4354;DHT22;11018;51.258;6.806;2023-02-27T06:48:29;-0.50;66.90
4354;DHT22;11018;51.258;6.806;2023-02-27T06:50:56;-0.40;64.60
4354;DHT22;11018;51.258;6.806;2023-02-27T06:53:22;-0.40;65.00
4354;DHT22;11018;51.258;6.806;2023-02-27T06:55:48;-0.40;64.70
4354;DHT22;11018;51.258;6.806;2023-02-27T06:58:14;-0.50;65.80
4354;DHT22;11018;51.258;6.806;2023-02-27T07:00:40;-0.40;66.60
4354;DHT22;11018;51.258;6.806;2023-02-27T07:03:06;-0.30;65.80
4354;DHT22;11018;51.258;6.806;2023-02-27T07:05:31;-0.30;64.90
4354;DHT22;11018;51.258;6.806;2023-02-27T07:07:57;-0.20;64.50
4354;DHT22;11018;51.258;6.806;2023-02-27T07:10:23;-0.20;63.90
4354;DHT22;11018;51.258;6.806;2023-02-27T07:12:49;-0.10;64.10
4354;DHT22;11018;51.258;6.806;2023-02-27T07:15:14;-0.10;63.70
4354;DHT22;11018;51.258;6.806;2023-02-27T07:17:40;-0.10;63.30
4354;DHT22;11018;51.258;6.806;2023-02-27T07:20:07;-0.10;63.50
4354;DHT22;11018;51.258;6.806;2023-02-27T07:22:34;0.00;63.30
4354;DHT22;11018;51.258;6.806;2023-02-27T07:25:00;0.00;63.90
4354;DHT22;11018;51.258;6.806;2023-02-27T07:27:26;0.10;62.80
4354;DHT22;11018;51.258;6.806;2023-02-27T07:29:51;0.10;61.40
4354;DHT22;11018;51.258;6.806;2023-02-27T07:32:17;0.20;61.00
4354;DHT22;11018;51.258;6.806;2023-02-27T07:34:42;0.20;59.80
4354;DHT22;11018;51.258;6.806;2023-02-27T07:37:08;0.20;59.60
4354;DHT22;11018;51.258;6.806;2023-02-27T07:39:33;0.30;59.70
4354;DHT22;11018;51.258;6.806;2023-02-27T07:41:59;0.30;58.90
4354;DHT22;11018;51.258;6.806;2023-02-27T07:44:24;0.40;57.60
4354;DHT22;11018;51.258;6.806;2023-02-27T07:46:50;0.40;57.90
4354;DHT22;11018;51.258;6.806;2023-02-27T07:49:15;0.50;56.80
4354;DHT22;11018;51.258;6.806;2023-02-27T07:51:41;0.60;56.60
4354;DHT22;11018;51.258;6.806;2023-02-27T07:54:07;0.60;56.00
4354;DHT22;11018;51.258;6.806;2023-02-27T07:56:32;0.70;55.60
4354;DHT22;11018;51.258;6.806;2023-02-27T07:58:58;0.80;55.10
4354;DHT22;11018;51.258;6.806;2023-02-27T08:01:23;0.80;54.60
4354;DHT22;11018;51.258;6.806;2023-02-27T08:03:49;0.90;54.60
4354;DHT22;11018;51.258;6.806;2023-02-27T08:06:14;0.90;53.60
4354;DHT22;11018;51.258;6.806;2023-02-27T08:08:40;1.00;52.90
4354;DHT22;11018;51.258;6.806;2023-02-27T08:11:06;1.00;52.60
4354;DHT22;11018;51.258;6.806;2023-02-27T08:13:32;1.10;53.70
4354;DHT22;11018;51.258;6.806;2023-02-27T08:15:57;1.10;54.60
4354;DHT22;11018;51.258;6.806;2023-02-27T08:18:23;1.20;52.30
4354;DHT22;11018;51.258;6.806;2023-02-27T08:20:48;1.40;52.10
4354;DHT22;11018;51.258;6.806;2023-02-27T08:23:14;1.40;51.20
4354;DHT22;11018;51.258;6.806;2023-02-27T08:25:39;1.50;51.10
4354;DHT22;11018;51.258;6.806;2023-02-27T08:28:05;1.70;48.30
4354;DHT22;11018;51.258;6.806;2023-02-27T08:30:31;1.70;48.10
4354;DHT22;11018;51.258;6.806;2023-02-27T08:32:56;1.90;47.00
4354;DHT22;11018;51.258;6.806;2023-02-27T08:35:22;2.00;46.30
4354;DHT22;11018;51.258;6.806;2023-02-27T08:37:48;2.10;45.20
4354;DHT22;11018;51.258;6.806;2023-02-27T08:40:14;2.20;44.10
4354;DHT22;11018;51.258;6.806;2023-02-27T08:42:40;2.20;43.10
4354;DHT22;11018;51.258;6.806;2023-02-27T08:45:07;2.30;43.60
4354;DHT22;11018;51.258;6.806;2023-02-27T08:47:32;2.40;42.40
4354;DHT22;11018;51.258;6.806;2023-02-27T08:49:58;2.40;42.00
4354;DHT22;11018;51.258;6.806;2023-02-27T08:52:23;2.50;41.80
4354;DHT22;11018;51.258;6.806;2023-02-27T08:54:49;2.60;41.20
4354;DHT22;11018;51.258;6.806;2023-02-27T08:57:15;2.70;38.30
4354;DHT22;11018;51.258;6.806;2023-02-27T08:59:40;2.80;38.80
4354;DHT22;11018;51.258;6.806;2023-02-27T09:02:06;2.90;36.60
4354;DHT22;11018;51.258;6.806;2023-02-27T09:04:31;2.90;36.80
4354;DHT22;11018;51.258;6.806;2023-02-27T09:06:57;3.00;37.70
4354;DHT22;11018;51.258;6.806;2023-02-27T09:09:23;3.00;35.70
4354;DHT22;11018;51.258;6.806;2023-02-27T09:11:51;3.20;36.40
4354;DHT22;11018;51.258;6.806;2023-02-27T09:14:17;3.20;34.80
4354;DHT22;11018;51.258;6.806;2023-02-27T09:16:43;3.30;35.20
4354;DHT22;11018;51.258;6.806;2023-02-27T09:19:09;5.90;37.80
4354;DHT22;11018;51.258;6.806;2023-02-27T09:21:35;3.70;33.80
4354;DHT22;11018;51.258;6.806;2023-02-27T09:24:03;3.60;32.00
4354;DHT22;11018;51.258;6.806;2023-02-27T09:26:29;3.60;33.40
4354;DHT22;11018;51.258;6.806;2023-02-27T09:28:54;3.60;34.00
4354;DHT22;11018;51.258;6.806;2023-02-27T09:31:20;3.70;32.50
4354;DHT22;11018;51.258;6.806;2023-02-27T09:33:45;3.80;32.60
4354;DHT22;11018;51.258;6.806;2023-02-27T09:36:11;3.70;31.70
4354;DHT22;11018;51.258;6.806;2023-02-27T09:38:37;3.70;32.00
4354;DHT22;11018;51.258;6.806;2023-02-27T09:41:04;3.90;38.00
4354;DHT22;11018;51.258;6.806;2023-02-27T09:43:37;4.20;36.00
4354;DHT22;11018;51.258;6.806;2023-02-27T09:46:05;4.30;30.50
4354;DHT22;11018;51.258;6.806;2023-02-27T09:48:35;4.10;30.90
4354;DHT22;11018;51.258;6.806;2023-02-27T09:51:02;4.00;31.70
4354;DHT22;11018;51.258;6.806;2023-02-27T09:53:34;4.20;31.90
4354;DHT22;11018;51.258;6.806;2023-02-27T09:56:26;4.10;31.20
4354;DHT22;11018;51.258;6.806;2023-02-27T09:59:15;4.10;32.60
4354;DHT22;11018;51.258;6.806;2023-02-27T10:01:47;4.20;32.90
4354;DHT22;11018;51.258;6.806;2023-02-27T10:09:54;4.40;31.20
4354;DHT22;11018;51.258;6.806;2023-02-27T10:12:31;4.30;32.40
4354;DHT22;11018;51.258;6.806;2023-02-27T10:15:07;4.50;32.10
4354;DHT22;11018;51.258;6.806;2023-02-27T10:17:39;4.70;31.50
4354;DHT22;11018;51.258;6.806;2023-02-27T10:20:13;4.80;30.80
4354;DHT22;11018;51.258;6.806;2023-02-27T10:22:43;4.80;29.80
4354;DHT22;11018;51.258;6.806;2023-02-27T10:25:14;4.80;28.40
4354;DHT22;11018;51.258;6.806;2023-02-27T10:27:41;4.90;28.40
4354;DHT22;11018;51.258;6.806;2023-02-27T10:30:20;5.00;27.40
4354;DHT22;11018;51.258;6.806;2023-02-27T10:32:49;5.10;30.00
4354;DHT22;11018;51.258;6.806;2023-02-27T10:35:26;5.30;28.60
4354;DHT22;11018;51.258;6.806;2023-02-27T10:38:11;5.50;26.40
4354;DHT22;11018;51.258;6.806;2023-02-27T10:40:39;5.50;24.00
4354;DHT22;11018;51.258;6.806;2023-02-27T10:43:05;5.50;24.20
4354;DHT22;11018;51.258;6.806;2023-02-27T10:45:32;5.50;23.90
4354;DHT22;11018;51.258;6.806;2023-02-27T10:47:59;5.30;24.00
4354;DHT22;11018;51.258;6.806;2023-02-27T10:52:59;5.30;23.60
4354;DHT22;11018;51.258;6.806;2023-02-27T10:55:33;5.20;24.30
4354;DHT22;11018;51.258;6.806;2023-02-27T10:58:01;5.20;25.20
4354;DHT22;11018;51.258;6.806;2023-02-27T11:00:39;5.30;25.40
4354;DHT22;11018;51.258;6.806;2023-02-27T11:03:06;5.30;26.20
4354;DHT22;11018;51.258;6.806;2023-02-27T11:05:35;5.20;25.40
4354;DHT22;11018;51.258;6.806;2023-02-27T11:08:22;5.20;25.50
4354;DHT22;11018;51.258;6.806;2023-02-27T11:11:04;5.50;26.40
4354;DHT22;11018;51.258;6.806;2023-02-27T11:13:36;5.50;25.40
4354;DHT22;11018;51.258;6.806;2023-02-27T11:16:13;5.80;24.20
4354;DHT22;11018;51.258;6.806;2023-02-27T11:18:41;6.00;23.20
4354;DHT22;11018;51.258;6.806;2023-02-27T11:23:36;6.10;23.50
4354;DHT22;11018;51.258;6.806;2023-02-27T11:26:10;6.20;23.60
4354;DHT22;11018;51.258;6.806;2023-02-27T11:28:40;6.40;22.80
4354;DHT22;11018;51.258;6.806;2023-02-27T11:31:19;6.40;20.60
4354;DHT22;11018;51.258;6.806;2023-02-27T11:33:49;6.70;19.50
4354;DHT22;11018;51.258;6.806;2023-02-27T11:36:16;6.90;19.90
4354;DHT22;11018;51.258;6.806;2023-02-27T11:38:52;7.00;20.00
4354;DHT22;11018;51.258;6.806;2023-02-27T11:41:19;7.20;18.80
4354;DHT22;11018;51.258;6.806;2023-02-27T11:43:49;7.40;19.00
4354;DHT22;11018;51.258;6.806;2023-02-27T11:46:23;7.50;18.30
4354;DHT22;11018;51.258;6.806;2023-02-27T11:49:03;7.40;18.20
4354;DHT22;11018;51.258;6.806;2023-02-27T11:52:11;7.10;16.60
4354;DHT22;11018;51.258;6.806;2023-02-27T11:54:56;6.90;18.10
4354;DHT22;11018;51.258;6.806;2023-02-27T11:57:28;7.00;18.30
4354;DHT22;11018;51.258;6.806;2023-02-27T12:05:16;7.00;19.70
4354;DHT22;11018;51.258;6.806;2023-02-27T12:07:50;7.10;17.60
4354;DHT22;11018;51.258;6.806;2023-02-27T12:10:23;7.00;18.30
4354;DHT22;11018;51.258;6.806;2023-02-27T12:18:23;6.70;19.20
4354;DHT22;11018;51.258;6.806;2023-02-27T12:21:06;6.60;18.10
4354;DHT22;11018;51.258;6.806;2023-02-27T12:23:41;6.50;19.20
4354;DHT22;11018;51.258;6.806;2023-02-27T12:31:37;6.50;18.30
4354;DHT22;11018;51.258;6.806;2023-02-27T12:37:19;6.40;18.80
4354;DHT22;11018;51.258;6.806;2023-02-27T12:39:46;6.50;19.00
4354;DHT22;11018;51.258;6.806;2023-02-27T12:53:54;6.70;17.30
4354;DHT22;11018;51.258;6.806;2023-02-27T12:56:24;6.80;16.70
4354;DHT22;11018;51.258;6.806;2023-02-27T12:59:14;7.00;16.80
4354;DHT22;11018;51.258;6.806;2023-02-27T13:01:47;7.00;16.50
4354;DHT22;11018;51.258;6.806;2023-02-27T13:06:57;7.00;15.80
4354;DHT22;11018;51.258;6.806;2023-02-27T13:09:46;6.80;16.20
4354;DHT22;11018;51.258;6.806;2023-02-27T13:15:05;6.60;17.20
4354;DHT22;11018;51.258;6.806;2023-02-27T13:23:30;6.80;16.80
4354;DHT22;11018;51.258;6.806;2023-02-27T13:25:58;6.70;17.10
4354;DHT22;11018;51.258;6.806;2023-02-27T13:28:26;6.80;17.90
4354;DHT22;11018;51.258;6.806;2023-02-27T13:39:03;7.10;17.10
4354;DHT22;11018;51.258;6.806;2023-02-27T13:46:45;7.30;16.60
4354;DHT22;11018;51.258;6.806;2023-02-27T13:51:46;7.00;17.10
4354;DHT22;11018;51.258;6.806;2023-02-27T14:07:12;7.50;15.70
4354;DHT22;11018;51.258;6.806;2023-02-27T14:09:41;7.80;15.50
4354;DHT22;11018;51.258;6.806;2023-02-27T14:12:34;8.20;15.00
4354;DHT22;11018;51.258;6.806;2023-02-27T14:15:04;8.30;15.00
4354;DHT22;11018;51.258;6.806;2023-02-27T14:23:18;8.50;14.20
4354;DHT22;11018;51.258;6.806;2023-02-27T14:26:16;8.20;15.30
4354;DHT22;11018;51.258;6.806;2023-02-27T14:28:47;7.60;15.40
4354;DHT22;11018;51.258;6.806;2023-02-27T14:31:31;7.30;17.00
4354;DHT22;11018;51.258;6.806;2023-02-27T14:33:59;7.40;17.00
4354;DHT22;11018;51.258;6.806;2023-02-27T14:36:35;8.10;15.80
4354;DHT22;11018;51.258;6.806;2023-02-27T14:39:05;8.70;14.50
4354;DHT22;11018;51.258;6.806;2023-02-27T14:44:20;9.60;13.80
4354;DHT22;11018;51.258;6.806;2023-02-27T14:46:46;9.60;12.90
4354;DHT22;11018;51.258;6.806;2023-02-27T14:49:27;10.00;13.10
4354;DHT22;11018;51.258;6.806;2023-02-27T14:51:53;9.00;12.60
4354;DHT22;11018;51.258;6.806;2023-02-27T14:54:24;8.60;13.40
4354;DHT22;11018;51.258;6.806;2023-02-27T14:57:01;8.30;13.80
4354;DHT22;11018;51.258;6.806;2023-02-27T14:59:45;7.60;14.60
4354;DHT22;11018;51.258;6.806;2023-02-27T15:02:20;9.50;17.00
4354;DHT22;11018;51.258;6.806;2023-02-27T15:04:47;7.90;16.70
4354;DHT22;11018;51.258;6.806;2023-02-27T15:07:19;9.80;15.10
4354;DHT22;11018;51.258;6.806;2023-02-27T15:09:50;8.30;14.80
4354;DHT22;11018;51.258;6.806;2023-02-27T15:12:19;9.20;14.40
4354;DHT22;11018;51.258;6.806;2023-02-27T15:15:05;9.90;13.10
4354;DHT22;11018;51.258;6.806;2023-02-27T15:17:37;10.30;12.60
4354;DHT22;11018;51.258;6.806;2023-02-27T15:20:33;10.70;10.30
4354;DHT22;11018;51.258;6.806;2023-02-27T15:23:01;9.60;11.50
4354;DHT22;11018;51.258;6.806;2023-02-27T15:25:36;8.60;13.40
4354;DHT22;11018;51.258;6.806;2023-02-27T15:28:26;7.90;14.90
4354;DHT22;11018;51.258;6.806;2023-02-27T15:30:55;7.30;15.40
4354;DHT22;11018;51.258;6.806;2023-02-27T15:33:26;7.00;17.30
4354;DHT22;11018;51.258;6.806;2023-02-27T15:35:53;7.40;16.60
4354;DHT22;11018;51.258;6.806;2023-02-27T15:38:30;8.30;15.70
4354;DHT22;11018;51.258;6.806;2023-02-27T15:40:57;8.70;13.80
4354;DHT22;11018;51.258;6.806;2023-02-27T15:43:26;9.30;12.20
4354;DHT22;11018;51.258;6.806;2023-02-27T15:45:52;9.20;12.80
4354;DHT22;11018;51.258;6.806;2023-02-27T15:48:18;9.40;12.00
4354;DHT22;11018;51.258;6.806;2023-02-27T15:50:52;9.50;13.20
4354;DHT22;11018;51.258;6.806;2023-02-27T15:53:23;9.60;11.80
4354;DHT22;11018;51.258;6.806;2023-02-27T15:56:00;9.80;12.00
4354;DHT22;11018;51.258;6.806;2023-02-27T15:58:31;9.20;12.10
4354;DHT22;11018;51.258;6.806;2023-02-27T16:01:12;8.50;14.90
4354;DHT22;11018;51.258;6.806;2023-02-27T16:03:44;7.80;15.30
4354;DHT22;11018;51.258;6.806;2023-02-27T16:06:17;7.10;15.80
4354;DHT22;11018;51.258;6.806;2023-02-27T16:08:55;6.80;15.70
4354;DHT22;11018;51.258;6.806;2023-02-27T16:11:27;6.60;17.10
4354;DHT22;11018;51.258;6.806;2023-02-27T16:13:54;6.50;17.50
4354;DHT22;11018;51.258;6.806;2023-02-27T16:16:36;6.30;17.00
4354;DHT22;11018;51.258;6.806;2023-02-27T16:19:23;6.20;17.10
4354;DHT22;11018;51.258;6.806;2023-02-27T16:22:05;6.00;17.70
4354;DHT22;11018;51.258;6.806;2023-02-27T16:24:36;5.90;19.40
4354;DHT22;11018;51.258;6.806;2023-02-27T16:27:02;5.90;20.50
4354;DHT22;11018;51.258;6.806;2023-02-27T16:29:35;5.70;18.80
4354;DHT22;11018;51.258;6.806;2023-02-27T16:32:04;5.80;19.40
4354;DHT22;11018;51.258;6.806;2023-02-27T16:34:34;5.80;19.70
4354;DHT22;11018;51.258;6.806;2023-02-27T16:37:02;5.70;20.60
4354;DHT22;11018;51.258;6.806;2023-02-27T16:39:28;5.60;20.60
4354;DHT22;11018;51.258;6.806;2023-02-27T16:41:56;5.40;20.20
4354;DHT22;11018;51.258;6.806;2023-02-27T16:44:22;5.30;21.00
4354;DHT22;11018;51.258;6.806;2023-02-27T16:46:54;5.40;19.80
4354;DHT22;11018;51.258;6.806;2023-02-27T16:49:25;5.40;21.20
4354;DHT22;11018;51.258;6.806;2023-02-27T16:51:51;5.20;22.20
4354;DHT22;11018;51.258;6.806;2023-02-27T16:54:17;5.00;21.90
4354;DHT22;11018;51.258;6.806;2023-02-27T16:56:44;5.10;22.80
4354;DHT22;11018;51.258;6.806;2023-02-27T17:01:59;5.10;24.10
4354;DHT22;11018;51.258;6.806;2023-02-27T17:04:25;5.00;25.40
4354;DHT22;11018;51.258;6.806;2023-02-27T17:06:52;4.90;23.60
4354;DHT22;11018;51.258;6.806;2023-02-27T17:09:18;4.90;24.20
4354;DHT22;11018;51.258;6.806;2023-02-27T17:11:44;4.70;24.70
4354;DHT22;11018;51.258;6.806;2023-02-27T17:14:09;4.70;24.00
4354;DHT22;11018;51.258;6.806;2023-02-27T17:16:35;4.70;23.20
4354;DHT22;11018;51.258;6.806;2023-02-27T17:19:00;4.60;25.40
4354;DHT22;11018;51.258;6.806;2023-02-27T17:21:26;4.40;25.80
4354;DHT22;11018;51.258;6.806;2023-02-27T17:23:52;4.20;26.00
4354;DHT22;11018;51.258;6.806;2023-02-27T17:26:17;3.90;27.90
4354;DHT22;11018;51.258;6.806;2023-02-27T17:28:43;3.90;28.50
4354;DHT22;11018;51.258;6.806;2023-02-27T17:31:09;3.80;29.10
4354;DHT22;11018;51.258;6.806;2023-02-27T17:33:36;3.70;29.60
4354;DHT22;11018;51.258;6.806;2023-02-27T17:36:06;3.80;28.90
4354;DHT22;11018;51.258;6.806;2023-02-27T17:38:32;3.70;29.20
4354;DHT22;11018;51.258;6.806;2023-02-27T17:40:58;3.60;29.60
4354;DHT22;11018;51.258;6.806;2023-02-27T17:43:24;3.70;30.70
4354;DHT22;11018;51.258;6.806;2023-02-27T17:45:51;3.70;28.80
4354;DHT22;11018;51.258;6.806;2023-02-27T17:48:16;4.00;29.30
4354;DHT22;11018;51.258;6.806;2023-02-27T17:50:42;4.20;26.60
4354;DHT22;11018;51.258;6.806;2023-02-27T17:53:07;4.30;26.40
4354;DHT22;11018;51.258;6.806;2023-02-27T17:55:38;4.20;25.70
4354;DHT22;11018;51.258;6.806;2023-02-27T17:58:03;4.20;27.70
4354;DHT22;11018;51.258;6.806;2023-02-27T18:00:29;4.10;27.80
4354;DHT22;11018;51.258;6.806;2023-02-27T18:02:54;4.30;25.80
4354;DHT22;11018;51.258;6.806;2023-02-27T18:05:20;4.40;25.40
4354;DHT22;11018;51.258;6.806;2023-02-27T18:07:46;4.30;26.30
4354;DHT22;11018;51.258;6.806;2023-02-27T18:10:11;4.50;25.40
4354;DHT22;11018;51.258;6.806;2023-02-27T18:12:38;4.50;24.70
4354;DHT22;11018;51.258;6.806;2023-02-27T18:15:05;4.50;24.60
4354;DHT22;11018;51.258;6.806;2023-02-27T18:17:31;4.40;24.10
4354;DHT22;11018;51.258;6.806;2023-02-27T18:19:56;4.40;24.40
4354;DHT22;11018;51.258;6.806;2023-02-27T18:22:23;4.30;24.90
4354;DHT22;11018;51.258;6.806;2023-02-27T18:24:52;4.10;25.90
4354;DHT22;11018;51.258;6.806;2023-02-27T18:27:18;3.80;27.40
4354;DHT22;11018;51.258;6.806;2023-02-27T18:29:43;3.80;28.30
4354;DHT22;11018;51.258;6.806;2023-02-27T18:32:09;3.80;27.80
4354;DHT22;11018;51.258;6.806;2023-02-27T18:34:35;4.10;26.50
4354;DHT22;11018;51.258;6.806;2023-02-27T18:37:03;4.20;25.70
4354;DHT22;11018;51.258;6.806;2023-02-27T18:39:28;4.00;26.50
4354;DHT22;11018;51.258;6.806;2023-02-27T18:41:54;3.90;27.40
4354;DHT22;11018;51.258;6.806;2023-02-27T18:44:20;3.90;27.30
4354;DHT22;11018;51.258;6.806;2023-02-27T18:46:45;4.10;26.40